Time;durP1;ratioP1;P1;durP2;ratioP2;P2;SDS_P1;SDS_P2;PMS_P1;PMS_P2;Temp;Humidity;BMP_temperature;BMP_pressure;BME280_temperature;BME280_humidity;BME280_pressure;Samples;Min_cycle;Max_cycle;Signal;HPM_P1;HPM_P2
2021/11/30 00:02:24;;;;;;;4.40;3.73;;;2.40;99.90;;;;;;5051968;28;20076;-73
2021/11/30 00:04:51;;;;;;;6.13;4.10;;;2.40;99.90;;;;;;5051312;28;20041;-74
2021/11/30 00:07:19;;;;;;;6.07;4.80;;;2.40;99.90;;;;;;5051982;28;20482;-73
2021/11/30 00:12:30;;;;;;;7.33;5.03;;;2.50;99.90;;;;;;5051959;28;20171;-74
2021/11/30 00:14:58;;;;;;;11.33;5.30;;;2.50;99.90;;;;;;5051506;28;20130;-73
2021/11/30 00:17:25;;;;;;;6.00;3.47;;;2.50;99.90;;;;;;5051862;28;20047;-72
2021/11/30 00:19:52;;;;;;;4.63;4.13;;;2.50;99.90;;;;;;5051785;28;20575;-73
2021/11/30 00:22:22;;;;;;;7.87;4.30;;;2.50;99.90;;;;;;5051743;28;20483;-70
2021/11/30 00:24:50;;;;;;;4.90;3.57;;;2.50;99.90;;;;;;5051232;28;20049;-72
2021/11/30 00:27:18;;;;;;;7.00;4.87;;;2.50;99.90;;;;;;5054093;28;20136;-74
2021/11/30 00:29:45;;;;;;;7.17;3.53;;;2.50;99.90;;;;;;5055796;28;20056;-74
2021/11/30 00:32:13;;;;;;;5.13;4.20;;;2.50;99.90;;;;;;5055895;28;20068;-74
2021/11/30 00:34:40;;;;;;;6.47;3.77;;;2.50;99.90;;;;;;5055182;28;20138;-76
2021/11/30 00:37:07;;;;;;;5.13;3.93;;;2.50;99.90;;;;;;5055517;28;20048;-73
2021/11/30 00:39:34;;;;;;;6.90;4.27;;;2.50;99.90;;;;;;5055703;28;20488;-72
2021/11/30 00:42:02;;;;;;;5.43;3.47;;;2.60;99.90;;;;;;5055732;28;20049;-71
2021/11/30 00:44:37;;;;;;;4.53;2.87;;;2.60;99.90;;;;;;5055018;28;20140;-73
2021/11/30 00:47:04;;;;;;;8.00;4.67;;;2.60;99.90;;;;;;5055545;28;20502;-71
2021/11/30 00:49:33;;;;;;;8.43;4.57;;;2.60;99.90;;;;;;5055398;28;20143;-71
2021/11/30 00:52:01;;;;;;;7.40;4.43;;;2.60;99.90;;;;;;5055528;28;20547;-71
2021/11/30 00:54:29;;;;;;;7.77;5.43;;;2.60;99.90;;;;;;5054756;28;20079;-72
2021/11/30 00:56:57;;;;;;;6.27;4.33;;;2.60;99.90;;;;;;5055468;28;20080;-71
2021/11/30 00:59:27;;;;;;;6.73;4.97;;;2.60;99.90;;;;;;5055471;28;20076;-71
2021/11/30 01:01:59;;;;;;;5.53;4.07;;;2.60;99.90;;;;;;5055284;28;20099;-75
2021/11/30 01:04:26;;;;;;;8.15;4.53;;;2.60;99.90;;;;;;5054692;28;20574;-73
2021/11/30 01:06:55;;;;;;;8.33;4.20;;;2.60;99.90;;;;;;5055186;28;20143;-72
2021/11/30 01:09:22;;;;;;;6.40;5.30;;;2.60;99.90;;;;;;5055097;28;20052;-73
2021/11/30 01:11:49;;;;;;;7.77;5.13;;;2.60;99.90;;;;;;5055078;28;20077;-74
2021/11/30 01:14:16;;;;;;;12.23;5.50;;;2.70;99.90;;;;;;5054835;28;20572;-73
2021/11/30 01:16:43;;;;;;;7.10;4.87;;;2.60;99.90;;;;;;5054861;28;20045;-73
2021/11/30 01:19:10;;;;;;;9.80;6.17;;;2.60;99.90;;;;;;5055153;28;20098;-73
2021/11/30 01:21:38;;;;;;;7.60;3.57;;;2.60;99.90;;;;;;5054944;28;20148;-74
2021/11/30 01:24:07;;;;;;;8.17;4.90;;;2.70;99.90;;;;;;5054349;28;20079;-74
2021/11/30 01:26:35;;;;;;;8.50;4.60;;;2.60;99.90;;;;;;5054580;28;20053;-70
2021/11/30 01:29:03;;;;;;;10.93;7.30;;;2.60;99.90;;;;;;5054822;28;20131;-71
2021/11/30 01:31:30;;;;;;;10.77;6.27;;;2.60;99.90;;;;;;5054908;28;20076;-72
2021/11/30 01:33:57;;;;;;;7.83;3.90;;;2.60;99.90;;;;;;5054613;28;20103;-72
2021/11/30 01:36:24;;;;;;;8.60;5.50;;;2.60;99.90;;;;;;5054732;28;20052;-71
2021/11/30 01:38:51;;;;;;;8.90;5.47;;;2.60;99.90;;;;;;5053854;28;20065;-73
2021/11/30 01:41:20;;;;;;;9.67;5.23;;;2.50;99.90;;;;;;5054411;28;20128;-73
2021/11/30 01:43:48;;;;;;;7.17;5.33;;;2.50;99.90;;;;;;5054246;28;20060;-73
2021/11/30 01:46:27;;;;;;;10.93;5.80;;;2.60;99.90;;;;;;5053959;28;20057;-73
2021/11/30 01:49:18;;;;;;;8.30;5.60;;;2.60;99.90;;;;;;5054721;28;20091;-73
2021/11/30 01:51:45;;;;;;;10.07;6.70;;;2.60;99.90;;;;;;5054242;28;20049;-73
2021/11/30 01:54:12;;;;;;;6.77;4.73;;;2.60;99.90;;;;;;5053650;28;20133;-72
2021/11/30 01:56:40;;;;;;;8.47;4.53;;;2.60;99.90;;;;;;5054342;28;20083;-72
2021/11/30 01:59:07;;;;;;;7.30;5.27;;;2.50;99.90;;;;;;5054056;28;20380;-74
2021/11/30 02:01:34;;;;;;;10.33;5.73;;;2.50;99.90;;;;;;5054057;28;20049;-74
2021/11/30 02:04:01;;;;;;;7.17;4.87;;;2.60;99.90;;;;;;5053797;28;20132;-74
2021/11/30 02:06:28;;;;;;;11.80;6.93;;;2.60;99.90;;;;;;5052827;28;20048;-73
2021/11/30 02:08:55;;;;;;;10.87;6.37;;;2.60;99.90;;;;;;5053725;28;20159;-74
2021/11/30 02:11:22;;;;;;;16.53;7.73;;;2.60;99.90;;;;;;5054061;28;20044;-72
2021/11/30 02:13:51;;;;;;;11.13;6.50;;;2.50;99.90;;;;;;5053708;28;20087;-74
2021/11/30 02:16:21;;;;;;;8.67;5.80;;;2.50;99.90;;;;;;5053282;28;20073;-74
2021/11/30 02:18:52;;;;;;;9.80;5.33;;;2.50;99.90;;;;;;5054160;28;20055;-74
2021/11/30 02:21:23;;;;;;;10.43;7.60;;;2.50;99.90;;;;;;5053900;28;20145;-73
2021/11/30 02:23:58;;;;;;;8.93;6.28;;;2.40;99.90;;;;;;5053812;28;20393;-73
2021/11/30 02:26:25;;;;;;;8.93;6.80;;;2.40;99.90;;;;;;5053918;28;20063;-73
2021/11/30 02:28:56;;;;;;;11.77;7.00;;;2.40;99.90;;;;;;5053420;28;20045;-73
2021/11/30 02:31:25;;;;;;;13.83;8.57;;;2.40;99.90;;;;;;5053541;28;20049;-75
2021/11/30 02:33:52;;;;;;;11.50;6.73;;;2.50;99.90;;;;;;5053365;28;20041;-73
2021/11/30 02:36:26;;;;;;;10.27;7.40;;;2.40;99.90;;;;;;5053231;28;20040;-73
2021/11/30 02:38:54;;;;;;;15.27;8.47;;;2.40;99.90;;;;;;5053185;28;20139;-71
2021/11/30 02:41:22;;;;;;;13.80;7.13;;;2.30;99.90;;;;;;5053465;28;20144;-72
2021/11/30 02:43:49;;;;;;;14.57;7.97;;;2.30;99.90;;;;;;5053205;28;20135;-72
2021/11/30 02:46:34;;;;;;;14.47;7.67;;;2.30;99.90;;;;;;5052569;28;20080;-71
2021/11/30 02:49:01;;;;;;;13.03;8.07;;;2.30;99.90;;;;;;5052979;28;20041;-74
2021/11/30 02:51:31;;;;;;;14.47;8.10;;;2.30;99.90;;;;;;5053196;28;20069;-74
2021/11/30 02:54:00;;;;;;;14.50;8.67;;;2.30;99.90;;;;;;5052892;28;20131;-76
2021/11/30 02:56:27;;;;;;;11.27;7.63;;;2.30;99.90;;;;;;5053048;28;20128;-73
2021/11/30 02:58:54;;;;;;;11.43;7.23;;;2.30;99.90;;;;;;5052951;28;20076;-73
2021/11/30 03:01:22;;;;;;;9.73;7.10;;;2.30;99.90;;;;;;5052962;28;20497;-73
2021/11/30 03:03:49;;;;;;;13.43;10.00;;;2.30;99.90;;;;;;5053054;28;20045;-71
2021/11/30 03:06:16;;;;;;;14.27;9.50;;;2.30;99.90;;;;;;5052298;28;20052;-69
2021/11/30 03:08:44;;;;;;;15.80;8.87;;;2.30;99.90;;;;;;5052815;28;20069;-70
2021/11/30 03:11:11;;;;;;;18.90;10.43;;;2.20;99.90;;;;;;5052671;28;20041;-72
2021/11/30 03:13:38;;;;;;;13.20;8.37;;;2.20;99.90;;;;;;5052947;28;20079;-70
2021/11/30 03:16:05;;;;;;;12.47;8.93;;;2.20;99.90;;;;;;5052291;28;20055;-71
2021/11/30 03:18:35;;;;;;;11.70;8.20;;;2.10;99.90;;;;;;5052637;28;20095;-69
2021/11/30 03:21:04;;;;;;;14.57;8.83;;;2.20;99.90;;;;;;5052694;28;20136;-68
2021/11/30 03:23:31;;;;;;;15.97;8.60;;;2.20;99.90;;;;;;5052567;28;20044;-70
2021/11/30 03:25:59;;;;;;;14.73;11.00;;;2.10;99.90;;;;;;5051687;28;20045;-70
2021/11/30 03:28:26;;;;;;;12.93;8.50;;;2.10;99.90;;;;;;5052604;28;20135;-69
2021/11/30 03:31:02;;;;;;;17.93;12.27;;;2.10;99.90;;;;;;5052423;28;20456;-69
2021/11/30 03:36:13;;;;;;;16.00;8.87;;;2.20;99.90;;;;;;5051699;28;20114;-68
2021/11/30 03:38:40;;;;;;;15.90;9.37;;;2.20;99.90;;;;;;5052464;28;20041;-70
2021/11/30 03:41:09;;;;;;;18.17;9.37;;;2.20;99.90;;;;;;5052245;28;20080;-69
2021/11/30 03:43:36;;;;;;;14.13;8.70;;;2.20;99.90;;;;;;5052264;28;20515;-70
2021/11/30 03:46:03;;;;;;;12.93;8.87;;;2.10;99.90;;;;;;5051487;28;20056;-68
2021/11/30 03:48:30;;;;;;;15.53;7.87;;;2.20;99.90;;;;;;5052214;28;20128;-70
2021/11/30 03:50:57;;;;;;;15.87;12.00;;;2.20;99.90;;;;;;5052010;28;20053;-70
2021/11/30 03:53:24;;;;;;;15.77;8.80;;;2.20;99.90;;;;;;5051963;28;20055;-68
2021/11/30 03:55:52;;;;;;;16.97;9.60;;;2.20;99.90;;;;;;5051669;28;20045;-71
2021/11/30 03:58:20;;;;;;;17.57;10.87;;;2.20;99.90;;;;;;5052008;28;20144;-71
2021/11/30 04:00:47;;;;;;;18.20;11.93;;;2.20;99.90;;;;;;5051812;28;20069;-69
2021/11/30 04:03:14;;;;;;;13.17;8.87;;;2.20;99.90;;;;;;5051491;28;20488;-69
2021/11/30 04:05:41;;;;;;;16.17;9.47;;;2.20;99.90;;;;;;5051625;28;20467;-70
2021/11/30 04:08:08;;;;;;;20.10;9.67;;;2.20;99.90;;;;;;5051934;28;20111;-69
2021/11/30 04:10:35;;;;;;;16.10;9.10;;;2.20;99.90;;;;;;5052073;28;20584;-67
2021/11/30 04:13:02;;;;;;;13.33;8.47;;;2.30;99.90;;;;;;5051914;28;20411;-69
2021/11/30 04:15:30;;;;;;;11.40;8.20;;;2.20;99.90;;;;;;5051261;28;20049;-69
2021/11/30 04:17:57;;;;;;;18.17;9.63;;;2.20;99.90;;;;;;5051628;28;20053;-70
2021/11/30 04:20:24;;;;;;;15.00;9.93;;;2.20;99.90;;;;;;5051931;28;20103;-71
2021/11/30 04:22:51;;;;;;;12.47;8.97;;;2.30;99.90;;;;;;5051793;28;20135;-70
2021/11/30 04:25:18;;;;;;;11.40;8.57;;;2.20;99.90;;;;;;5051213;28;20044;-69
2021/11/30 04:27:45;;;;;;;13.53;9.53;;;2.20;99.90;;;;;;5051235;28;20098;-71
2021/11/30 04:30:12;;;;;;;14.80;9.27;;;2.20;99.90;;;;;;5051574;28;20041;-69
2021/11/30 04:32:41;;;;;;;15.03;10.40;;;2.20;99.90;;;;;;5051455;28;20124;-69
2021/11/30 04:35:10;;;;;;;18.17;9.03;;;2.10;99.90;;;;;;5050956;28;20045;-68
2021/11/30 04:37:38;;;;;;;17.67;9.87;;;2.10;99.90;;;;;;5051667;28;20211;-67
2021/11/30 04:40:06;;;;;;;18.03;11.00;;;2.00;99.90;;;;;;5051515;28;20053;-68
2021/11/30 04:42:33;;;;;;;15.97;10.00;;;2.00;99.90;;;;;;5051551;28;20485;-70
2021/11/30 04:45:05;;;;;;;14.97;9.47;;;2.00;99.90;;;;;;5050906;28;20076;-70
2021/11/30 04:47:34;;;;;;;;;;;2.00;99.90;;;;;;5052081;28;20126;-71
2021/11/30 04:50:06;;;;;;;9.33;6.77;;;2.00;99.90;;;;;;5051618;28;19927;-70
2021/11/30 04:52:34;;;;;;;10.03;7.60;;;1.90;99.90;;;;;;5051436;28;20045;-68
2021/11/30 04:55:01;;;;;;;13.73;8.53;;;1.90;99.90;;;;;;5050932;28;20413;-68
2021/11/30 04:57:28;;;;;;;12.33;8.23;;;1.90;99.90;;;;;;5051314;28;20137;-70
2021/11/30 04:59:55;;;;;;;11.33;8.80;;;1.90;99.90;;;;;;5051631;28;20083;-70
2021/11/30 05:02:22;;;;;;;12.40;8.93;;;1.80;99.90;;;;;;5051669;28;20041;-71
2021/11/30 05:04:49;;;;;;;15.43;10.50;;;1.70;99.90;;;;;;5050944;28;20467;-72
2021/11/30 05:07:19;;;;;;;20.63;10.07;;;1.60;99.90;;;;;;5051333;28;20087;-70
2021/11/30 05:09:46;;;;;;;15.90;9.87;;;1.50;99.90;;;;;;5051276;28;20140;-69
2021/11/30 05:12:13;;;;;;;16.27;10.23;;;1.40;99.90;;;;;;5051139;28;20123;-71
2021/11/30 05:14:40;;;;;;;17.70;9.30;;;1.40;99.90;;;;;;5053379;28;20041;-73
2021/11/30 05:17:07;;;;;;;14.67;7.40;;;1.40;99.90;;;;;;5054903;28;20513;-71
2021/11/30 05:19:34;;;;;;;12.67;9.20;;;1.40;99.90;;;;;;5054958;28;20418;-73
2021/11/30 05:22:01;;;;;;;14.90;10.37;;;1.30;99.90;;;;;;5054753;28;20560;-74
2021/11/30 05:24:29;;;;;;;15.13;9.17;;;1.30;99.90;;;;;;5054330;28;20045;-74
2021/11/30 05:26:57;;;;;;;17.50;10.27;;;1.20;99.90;;;;;;5054626;28;20148;-74
2021/11/30 05:29:24;;;;;;;11.73;7.37;;;1.20;99.90;;;;;;5054765;28;20049;-72
2021/11/30 05:31:51;;;;;;;13.93;10.17;;;1.20;99.90;;;;;;5054783;28;20135;-72
2021/11/30 05:34:18;;;;;;;15.27;9.20;;;1.20;99.90;;;;;;5054030;28;20492;-74
2021/11/30 05:36:45;;;;;;;11.73;8.90;;;1.20;99.90;;;;;;5054334;28;20049;-72
2021/11/30 05:39:12;;;;;;;10.73;6.33;;;1.30;99.90;;;;;;5054507;28;20047;-71
2021/11/30 05:41:40;;;;;;;17.83;10.80;;;1.20;99.90;;;;;;5054535;28;20140;-71
2021/11/30 05:44:07;;;;;;;17.83;8.30;;;1.30;99.90;;;;;;5053911;28;20075;-72
2021/11/30 05:46:36;;;;;;;9.40;6.70;;;1.30;99.90;;;;;;5054854;28;20055;-71
2021/11/30 05:49:04;;;;;;;14.50;8.03;;;1.30;99.90;;;;;;5054626;28;20056;-71
2021/11/30 05:51:32;;;;;;;10.67;7.63;;;1.30;99.90;;;;;;5054355;28;20041;-71
2021/11/30 05:53:59;;;;;;;12.93;8.83;;;1.30;99.90;;;;;;5053781;28;20146;-72
2021/11/30 05:56:26;;;;;;;12.63;6.70;;;1.30;99.90;;;;;;5054229;28;20084;-71
2021/11/30 05:58:54;;;;;;;9.93;6.30;;;1.40;99.90;;;;;;5054348;28;20095;-71
2021/11/30 06:01:25;;;;;;;14.10;7.30;;;1.40;99.90;;;;;;5054526;28;20135;-73
2021/11/30 06:04:01;;;;;;;16.07;9.70;;;1.30;99.90;;;;;;5054038;28;20094;-75
2021/11/30 06:06:30;;;;;;;12.10;7.03;;;1.30;99.90;;;;;;5054402;28;20053;-70
2021/11/30 06:08:57;;;;;;;10.93;7.43;;;1.40;99.90;;;;;;5053705;28;20052;-69
2021/11/30 06:11:25;;;;;;;15.03;9.30;;;1.40;99.90;;;;;;5054236;28;20420;-70
2021/11/30 06:13:53;;;;;;;15.70;9.90;;;1.40;99.90;;;;;;5053858;28;20469;-69
2021/11/30 06:16:21;;;;;;;11.33;6.03;;;1.50;99.90;;;;;;5053322;28;20072;-69
2021/11/30 06:18:48;;;;;;;9.53;7.47;;;1.50;99.90;;;;;;5053549;28;20132;-71
2021/11/30 06:21:17;;;;;;;13.67;7.60;;;1.50;99.90;;;;;;5054023;28;20052;-69
2021/11/30 06:23:44;;;;;;;9.27;5.93;;;1.50;99.90;;;;;;5053534;28;20045;-72
2021/11/30 06:26:12;;;;;;;11.30;7.13;;;1.40;99.90;;;;;;5052802;28;20080;-70
2021/11/30 06:28:39;;;;;;;13.67;6.83;;;1.50;99.90;;;;;;5053460;28;20140;-70
2021/11/30 06:31:09;;;;;;;18.03;9.13;;;1.50;99.90;;;;;;5053375;28;20079;-70
2021/11/30 06:33:36;;;;;;;10.00;5.60;;;1.50;99.90;;;;;;5053743;28;20210;-70
2021/11/30 06:36:04;;;;;;;11.57;7.70;;;1.50;99.90;;;;;;5052814;28;20049;-70
2021/11/30 06:38:31;;;;;;;10.17;5.67;;;1.50;99.90;;;;;;5053533;28;20052;-69
2021/11/30 06:40:58;;;;;;;7.47;5.20;;;1.50;99.90;;;;;;5053483;28;20076;-71
2021/11/30 06:43:25;;;;;;;9.67;6.67;;;1.50;99.90;;;;;;5053344;28;20132;-68
2021/11/30 06:45:52;;;;;;;12.30;6.50;;;1.50;99.90;;;;;;5052656;28;20465;-67
2021/11/30 06:48:21;;;;;;;10.97;8.00;;;1.50;99.90;;;;;;5053276;28;20095;-70
2021/11/30 06:50:48;;;;;;;8.67;6.97;;;1.50;99.90;;;;;;5053185;28;20045;-70
2021/11/30 06:53:15;;;;;;;7.80;5.50;;;1.50;99.90;;;;;;5053433;28;20723;-71
2021/11/30 06:55:42;;;;;;;10.00;6.17;;;1.50;99.90;;;;;;5052691;28;20556;-71
2021/11/30 06:58:09;;;;;;;11.87;9.27;;;1.50;99.90;;;;;;5053058;28;20059;-71
2021/11/30 07:00:36;;;;;;;10.47;6.37;;;1.50;99.90;;;;;;5052917;28;20047;-72
2021/11/30 07:03:03;;;;;;;11.27;5.87;;;1.50;99.90;;;;;;5053115;28;20049;-72
2021/11/30 07:05:33;;;;;;;9.80;6.57;;;1.50;99.90;;;;;;5064353;28;20045;-71
2021/11/30 07:08:13;;;;;;;18.67;7.60;;;1.50;99.90;;;;;;5052918;28;20051;-69
2021/11/30 07:10:43;;;;;;;9.03;6.47;;;1.50;99.90;;;;;;5052907;28;20049;-69
2021/11/30 07:13:22;;;;;;;14.67;8.57;;;1.50;99.90;;;;;;5052877;28;20045;-72
2021/11/30 07:15:52;;;;;;;14.33;7.33;;;1.50;99.90;;;;;;5052240;28;20045;-71
2021/11/30 07:18:19;;;;;;;15.27;7.37;;;1.60;99.90;;;;;;5052682;28;20060;-73
2021/11/30 07:20:49;;;;;;;11.70;5.37;;;1.60;99.90;;;;;;5052749;28;20049;-70
2021/11/30 07:23:16;;;;;;;10.93;6.93;;;1.60;99.90;;;;;;5052508;28;20135;-71
2021/11/30 07:25:44;;;;;;;9.00;6.00;;;1.60;99.90;;;;;;5052040;28;20045;-69
2021/11/30 07:28:11;;;;;;;18.20;8.90;;;1.60;99.90;;;;;;5052370;28;20475;-71
2021/11/30 07:30:39;;;;;;;13.67;7.70;;;1.60;99.90;;;;;;5052244;28;20049;-70
2021/11/30 07:33:06;;;;;;;6.87;4.70;;;1.60;99.90;;;;;;5052228;28;20080;-71
2021/11/30 07:35:33;;;;;;;15.93;9.37;;;1.60;99.90;;;;;;5051429;28;20077;-72
2021/11/30 07:38:01;;;;;;;9.03;5.57;;;1.60;99.90;;;;;;5052178;28;20073;-74
2021/11/30 07:40:28;;;;;;;9.23;6.07;;;1.60;99.90;;;;;;5053371;28;20139;-69
2021/11/30 07:42:55;;;;;;;10.27;7.40;;;1.50;99.90;;;;;;5052827;28;20045;-70
2021/11/30 07:45:22;;;;;;;12.73;5.83;;;1.50;99.90;;;;;;5052734;28;20045;-74
2021/11/30 07:47:49;;;;;;;10.40;7.23;;;1.60;99.90;;;;;;5052309;28;20136;-76
2021/11/30 07:50:16;;;;;;;9.03;7.10;;;1.60;99.90;;;;;;5052191;28;20076;-70
2021/11/30 07:52:44;;;;;;;12.07;7.47;;;1.60;99.90;;;;;;5052103;28;20091;-73
2021/11/30 07:55:14;;;;;;;12.57;6.53;;;1.60;99.90;;;;;;5051646;28;20402;-70
2021/11/30 07:57:42;;;;;;;12.03;6.77;;;1.60;99.90;;;;;;5052084;28;20077;-69
2021/11/30 08:00:11;;;;;;;9.60;5.67;;;1.60;99.90;;;;;;5051953;28;20471;-71
2021/11/30 08:02:39;;;;;;;11.33;7.03;;;1.60;99.90;;;;;;5052126;28;20158;-70
2021/11/30 08:05:07;;;;;;;14.30;8.53;;;1.60;99.90;;;;;;5051269;28;20279;-71
2021/11/30 08:07:34;;;;;;;12.53;7.73;;;1.60;99.90;;;;;;5051955;28;20051;-71
2021/11/30 08:10:02;;;;;;;12.10;9.03;;;1.60;99.90;;;;;;5051785;28;20489;-73
2021/11/30 08:12:30;;;;;;;9.30;6.07;;;1.60;99.90;;;;;;5051849;28;20052;-73
2021/11/30 08:14:57;;;;;;;13.57;8.47;;;1.50;99.90;;;;;;5052217;28;20076;-76
2021/11/30 08:17:24;;;;;;;8.93;5.70;;;1.60;99.90;;;;;;5051810;28;20095;-73
2021/11/30 08:19:51;;;;;;;8.90;7.60;;;1.60;99.90;;;;;;5051757;28;20053;-73
2021/11/30 08:22:18;;;;;;;10.90;7.13;;;1.60;99.90;;;;;;5051809;28;20509;-71
2021/11/30 08:24:45;;;;;;;10.23;6.20;;;1.60;99.90;;;;;;5051318;28;20069;-72
2021/11/30 08:27:12;;;;;;;10.73;8.13;;;1.60;99.90;;;;;;5051714;28;20049;-72
2021/11/30 08:29:45;;;;;;;12.17;7.03;;;1.70;99.90;;;;;;5051614;28;20130;-73
2021/11/30 08:32:13;;;;;;;9.00;6.23;;;1.70;99.90;;;;;;5053464;28;20045;-77
2021/11/30 08:34:41;;;;;;;10.17;6.17;;;1.70;99.90;;;;;;5052429;28;20045;-73
2021/11/30 08:37:10;;;;;;;9.30;6.97;;;1.70;99.90;;;;;;5051704;28;20087;-77
2021/11/30 08:39:38;;;;;;;16.17;7.27;;;1.70;99.90;;;;;;5051693;28;20072;-73
2021/11/30 08:42:08;;;;;;;7.93;5.03;;;1.70;99.90;;;;;;5051482;28;20135;-71
2021/11/30 08:44:35;;;;;;;8.37;5.87;;;1.70;99.90;;;;;;5051181;28;20087;-76
2021/11/30 08:47:05;;;;;;;10.23;6.13;;;1.80;99.90;;;;;;5051538;28;20041;-74
2021/11/30 08:49:32;;;;;;;9.07;6.50;;;1.80;99.90;;;;;;5055536;28;20080;-73
2021/11/30 08:52:00;;;;;;;7.43;4.87;;;1.80;99.90;;;;;;5055896;28;20102;-73
2021/11/30 08:54:29;;;;;;;6.33;5.27;;;1.80;99.90;;;;;;5054829;28;20077;-75
2021/11/30 08:56:57;;;;;;;9.67;6.30;;;1.80;99.90;;;;;;5055493;28;20485;-75
2021/11/30 08:59:25;;;;;;;8.17;6.53;;;1.90;99.90;;;;;;5055517;28;20052;-73
2021/11/30 09:01:53;;;;;;;10.87;4.53;;;1.90;99.90;;;;;;5055178;28;20079;-75
2021/11/30 09:04:21;;;;;;;5.93;4.87;;;2.00;99.90;;;;;;5054652;28;20156;-74
2021/11/30 09:06:49;;;;;;;7.23;4.23;;;1.90;99.90;;;;;;5055277;28;20132;-73
2021/11/30 09:09:16;;;;;;;5.57;4.27;;;2.00;99.90;;;;;;5055059;28;20084;-74
2021/11/30 09:11:43;;;;;;;8.13;5.13;;;2.00;99.90;;;;;;5055394;28;20136;-74
2021/11/30 09:14:10;;;;;;;4.80;3.77;;;2.00;99.90;;;;;;5054824;28;20076;-76
2021/11/30 09:16:38;;;;;;;8.23;5.83;;;2.10;99.90;;;;;;5055202;28;20128;-76
2021/11/30 09:19:05;;;;;;;6.27;5.60;;;2.10;99.90;;;;;;5055714;28;20056;-75
2021/11/30 09:21:34;;;;;;;6.13;5.27;;;2.20;99.90;;;;;;5054949;28;20501;-76
2021/11/30 09:24:01;;;;;;;5.00;3.13;;;2.20;99.90;;;;;;5054358;28;20142;-76
2021/11/30 09:26:28;;;;;;;4.37;3.47;;;2.20;99.90;;;;;;5054574;28;20057;-75
2021/11/30 09:28:56;;;;;;;3.63;2.87;;;2.20;99.90;;;;;;5054925;28;20443;-74
2021/11/30 09:31:23;;;;;;;4.23;2.83;;;2.20;99.90;;;;;;5055276;28;20071;-75
2021/11/30 09:33:50;;;;;;;4.80;3.30;;;2.20;99.90;;;;;;5054989;28;20137;-75
2021/11/30 09:36:17;;;;;;;4.67;3.70;;;2.20;99.90;;;;;;5054565;28;20478;-77
2021/11/30 09:38:46;;;;;;;5.33;3.73;;;2.20;99.90;;;;;;5055040;28;20077;-77
2021/11/30 09:41:13;;;;;;;2.77;2.40;;;2.20;99.90;;;;;;5054875;28;20048;-75
2021/11/30 09:43:40;;;;;;;3.10;2.67;;;2.20;99.90;;;;;;5054866;28;20049;-75
2021/11/30 09:46:08;;;;;;;3.13;2.63;;;2.30;99.90;;;;;;5054277;28;20512;-76
2021/11/30 09:48:37;;;;;;;2.93;2.73;;;2.30;99.90;;;;;;5054877;28;20045;-75
2021/11/30 09:51:06;;;;;;;3.87;3.30;;;2.30;99.90;;;;;;5054911;28;20530;-75
2021/11/30 09:53:34;;;;;;;3.97;3.17;;;2.40;99.90;;;;;;5054854;28;20053;-75
2021/11/30 09:56:02;;;;;;;2.70;2.40;;;2.40;99.90;;;;;;5053811;28;20053;-74
2021/11/30 09:58:30;;;;;;;3.33;2.93;;;2.40;99.90;;;;;;5054073;28;20138;-74
2021/11/30 10:01:00;;;;;;;4.23;3.73;;;2.40;99.90;;;;;;5053687;28;20052;-74
2021/11/30 10:03:28;;;;;;;2.90;2.53;;;2.40;99.90;;;;;;5054070;28;20052;-74
2021/11/30 10:05:56;;;;;;;6.43;3.70;;;2.40;99.90;;;;;;5053543;28;20049;-73
2021/11/30 10:08:30;;;;;;;4.10;3.50;;;2.40;99.90;;;;;;5053911;28;20501;-74
2021/11/30 10:10:58;;;;;;;3.73;2.73;;;2.50;99.90;;;;;;5054025;28;20072;-73
2021/11/30 10:13:27;;;;;;;5.60;3.70;;;2.50;99.90;;;;;;5054180;28;20090;-74
2021/11/30 10:15:59;;;;;;;5.13;3.43;;;2.50;99.90;;;;;;5053336;28;20045;-74
2021/11/30 10:18:27;;;;;;;;;;;2.60;99.90;;;;;;5054479;28;20052;-75
2021/11/30 10:20:57;;;;;;;3.80;3.23;;;2.60;99.90;;;;;;5053974;28;20019;-73
2021/11/30 10:23:25;;;;;;;3.83;3.07;;;2.60;99.90;;;;;;5054131;28;20268;-74
2021/11/30 10:25:53;;;;;;;3.57;3.27;;;2.60;99.90;;;;;;5053046;28;20132;-74
2021/11/30 10:28:24;;;;;;;4.40;4.00;;;2.60;99.90;;;;;;5053646;28;20132;-74
2021/11/30 10:30:53;;;;;;;3.73;3.47;;;2.70;99.90;;;;;;5061002;28;20079;-76
2021/11/30 10:33:23;;;;;;;4.93;3.30;;;2.70;99.90;;;;;;5058535;28;20339;-70
2021/11/30 10:35:53;;;;;;;5.53;4.63;;;2.80;99.90;;;;;;5053050;28;20052;-76
2021/11/30 10:38:22;;;;;;;4.03;3.00;;;2.80;99.90;;;;;;5053357;28;20045;-71
2021/11/30 10:40:49;;;;;;;3.33;3.03;;;2.90;99.90;;;;;;5053210;28;20412;-72
2021/11/30 10:43:17;;;;;;;4.07;3.57;;;2.90;99.90;;;;;;5053445;28;20041;-75
2021/11/30 10:45:45;;;;;;;6.90;3.90;;;2.90;99.90;;;;;;5052949;28;20072;-76
2021/11/30 10:48:16;;;;;;;5.67;3.60;;;3.00;99.90;;;;;;5053370;28;20401;-72
2021/11/30 10:50:46;;;;;;;6.13;4.77;;;3.00;99.90;;;;;;5053053;28;20045;-71
2021/11/30 10:53:21;;;;;;;7.03;4.60;;;3.10;99.90;;;;;;5053329;28;20504;-76
2021/11/30 10:55:54;;;;;;;6.13;5.10;;;3.20;99.90;;;;;;5052307;28;20069;-73
2021/11/30 10:58:22;;;;;;;5.70;4.27;;;3.20;99.90;;;;;;5053012;28;20504;-72
2021/11/30 11:00:51;;;;;;;4.67;3.67;;;3.30;99.90;;;;;;5052888;28;20085;-73
2021/11/30 11:03:21;;;;;;;4.73;3.60;;;3.30;99.90;;;;;;5053070;28;20099;-74
2021/11/30 11:06:24;;;;;;;7.63;5.13;;;3.40;99.90;;;;;;5052440;28;20131;-75
2021/11/30 11:08:42;;;;;;;6.47;4.57;;;3.40;99.90;;;;;;5052674;28;20072;-73
2021/11/30 11:11:09;;;;;;;6.13;4.40;;;3.50;99.90;;;;;;5051713;28;20497;-73
2021/11/30 11:13:38;;;;;;;4.50;4.17;;;3.50;99.90;;;;;;5053060;28;20072;-73
2021/11/30 11:16:07;;;;;;;5.40;4.40;;;3.60;99.90;;;;;;5052084;28;20558;-73
2021/11/30 11:18:37;;;;;;;5.93;4.70;;;3.60;99.90;;;;;;5052635;28;20554;-75
2021/11/30 11:21:16;;;;;;;6.63;4.50;;;3.70;99.90;;;;;;5052759;28;20152;-77
2021/11/30 11:23:46;;;;;;;5.17;4.07;;;3.70;99.90;;;;;;5052680;28;20132;-76
2021/11/30 11:26:22;;;;;;;6.07;4.03;;;3.80;99.90;;;;;;5052067;28;20049;-75
2021/11/30 11:28:50;;;;;;;5.70;4.53;;;3.80;99.90;;;;;;5052342;28;20044;-74
2021/11/30 11:31:17;;;;;;;5.43;4.80;;;3.90;99.90;;;;;;5052416;28;20140;-75
2021/11/30 11:33:46;;;;;;;4.30;3.90;;;4.10;99.90;;;;;;5052319;28;20500;-75
2021/11/30 11:36:14;;;;;;;4.87;3.70;;;4.20;99.90;;;;;;5051808;28;20079;-75
2021/11/30 11:38:41;;;;;;;3.87;3.47;;;4.20;99.90;;;;;;5052185;28;20504;-76
2021/11/30 11:41:09;;;;;;;9.40;2.53;;;4.30;99.90;;;;;;5052082;28;20045;-76
2021/11/30 11:43:38;;;;;;;2.53;2.33;;;4.40;99.90;;;;;;5052125;28;20073;-74
2021/11/30 11:46:08;;;;;;;4.67;3.20;;;4.50;99.90;;;;;;5051930;28;20045;-76
2021/11/30 11:48:35;;;;;;;3.93;2.23;;;4.50;99.90;;;;;;5052173;28;20098;-74
2021/11/30 11:51:06;;;;;;;4.20;3.27;;;4.60;99.90;;;;;;5052911;28;20099;-76
2021/11/30 11:53:37;;;;;;;2.88;2.63;;;4.60;99.90;;;;;;5052145;28;20170;-75
2021/11/30 11:56:13;;;;;;;4.90;2.00;;;4.70;99.90;;;;;;5051418;28;20152;-80
2021/11/30 11:58:41;;;;;;;4.37;2.53;;;4.70;99.90;;;;;;5053865;28;20140;-77
2021/11/30 12:01:13;;;;;;;3.80;2.57;;;4.70;99.90;;;;;;5053835;28;20099;-79
2021/11/30 12:04:00;;;;;;;2.20;2.10;;;4.80;99.90;;;;;;5052213;28;20106;-75
2021/11/30 12:06:31;;;;;;;1.47;1.37;;;4.80;99.90;;;;;;5052055;28;20408;-76
2021/11/30 12:09:19;;;;;;;1.58;1.48;;;4.80;99.90;;;;;;5051793;28;20073;-74
2021/11/30 12:11:49;;;;;;;1.80;1.10;;;4.80;99.90;;;;;;5052794;28;20416;-73
2021/11/30 12:14:21;;;;;;;3.17;1.47;;;4.80;99.90;;;;;;5051563;28;20045;-77
2021/11/30 12:17:27;;;;;;;3.47;1.57;;;4.90;99.90;;;;;;5051756;28;20416;-75
2021/11/30 12:20:10;;;;;;;7.83;1.17;;;4.90;99.90;;;;;;5051779;28;20120;-73
2021/11/30 12:22:47;;;;;;;6.73;0.73;;;4.90;99.90;;;;;;5051432;28;20044;-75
2021/11/30 12:25:32;;;;;;;0.90;0.63;;;4.90;99.90;;;;;;5051164;28;20049;-74
2021/11/30 12:28:01;;;;;;;2.50;1.00;;;4.90;99.90;;;;;;5051637;28;20576;-74
2021/11/30 12:30:53;;;;;;;3.13;1.00;;;4.90;99.90;;;;;;5051669;28;20148;-75
2021/11/30 12:33:24;;;;;;;1.48;1.25;;;4.90;99.90;;;;;;5051991;28;20056;-74
2021/11/30 12:35:55;;;;;;;5.82;1.00;;;4.90;99.90;;;;;;5051086;28;20095;-76
2021/11/30 12:38:32;;;;;;;3.08;1.38;;;4.90;99.90;;;;;;5051967;28;20049;-74
2021/11/30 12:40:59;;;;;;;3.50;1.20;;;4.90;99.90;;;;;;5051686;28;20056;-77
2021/11/30 12:43:31;;;;;;;4.70;2.33;;;4.90;99.90;;;;;;5051510;28;20111;-75
2021/11/30 12:46:01;;;;;;;;;;;4.90;99.90;;;;;;5051537;28;20072;-76
2021/11/30 12:48:37;;;;;;;1.13;0.63;;;4.90;99.90;;;;;;5052804;28;20019;-75
2021/11/30 12:51:26;;;;;;;7.83;2.63;;;4.90;99.90;;;;;;5051792;28;20140;-75
2021/11/30 12:53:56;;;;;;;3.33;0.90;;;4.90;99.90;;;;;;5054642;28;20041;-75
2021/11/30 12:56:48;;;;;;;3.87;1.00;;;4.90;99.90;;;;;;5057226;28;20049;-77
2021/11/30 12:59:49;;;;;;;6.07;1.15;;;4.90;99.90;;;;;;5055443;28;20076;-74
2021/11/30 13:02:22;;;;;;;2.50;1.00;;;4.90;99.90;;;;;;5056333;28;20107;-77
2021/11/30 13:04:52;;;;;;;1.37;0.80;;;4.90;99.90;;;;;;5055383;28;20099;-74
2021/11/30 13:07:20;;;;;;;2.27;1.50;;;5.00;99.90;;;;;;5052436;28;20484;-74
2021/11/30 13:09:51;;;;;;;5.50;1.90;;;5.00;99.90;;;;;;5055900;28;20049;-74